Terminal Aerodrome Forecast
Issued by NWS

Home | Current Version | Previous Version | Graphics & Text | Print | Product List | Glossary On
Versions: 1 2 3 4 5 6 7 8 9 10 11 12 13 14 15 16 17 18
000
FTUS42 KMHX 280923 AAA
TAFPGV
TAF AMD
KPGV 280923Z 2809/2906 00000KT 6SM BR SCT050 BKN100
      TEMPO 2809/2813 2SM BR SCT003
     FM281500 14006KT P6SM BKN070
      AMD LTD TO CLD VIS AND WIND=

USA.gov is the U.S. government's official web portal to all federal, state and local government web resources and services.